Terminal Aerodrome Forecast
Issued by NWS

Home | Current Version | Previous Version | Graphics & Text | Print | Product List | Glossary On
Versions: 1 2 3 4 5 6 7 8 9 10 11 12 13 14 15 16 17 18 19 20 21 22 23 24 25 26 27 28 29
000
FTUS43 KLOT 281419 AAA
TAFMDW
TAF AMD
KMDW 281419Z 2814/2912 07012KT 5SM BR OVC009
     FM281800 06009KT P6SM VCSH OVC010
     FM290000 04008KT P6SM OVC015=

USA.gov is the U.S. government's official web portal to all federal, state and local government web resources and services.